sensor_id;sensor_type;location;lat;lon;timestamp;P1;durP1;ratioP1;P2;durP2;ratioP2
9536;SDS011;4807;48.024;11.726;2023-08-24T00:00:15;7.93;;;7.23;;
9536;SDS011;4807;48.024;11.726;2023-08-24T00:03:25;8.57;;;7.87;;
9536;SDS011;4807;48.024;11.726;2023-08-24T00:06:34;7.47;;;6.90;;
9536;SDS011;4807;48.024;11.726;2023-08-24T00:09:42;10.33;;;7.23;;
9536;SDS011;4807;48.024;11.726;2023-08-24T00:12:50;8.70;;;7.83;;
9536;SDS011;4807;48.024;11.726;2023-08-24T00:15:59;8.43;;;7.60;;
9536;SDS011;4807;48.024;11.726;2023-08-24T00:19:09;8.17;;;7.57;;
9536;SDS011;4807;48.024;11.726;2023-08-24T00:22:17;8.83;;;7.93;;
9536;SDS011;4807;48.024;11.726;2023-08-24T00:25:25;7.30;;;6.77;;
9536;SDS011;4807;48.024;11.726;2023-08-24T00:28:34;8.00;;;6.70;;
9536;SDS011;4807;48.024;11.726;2023-08-24T00:31:42;8.23;;;7.47;;
9536;SDS011;4807;48.024;11.726;2023-08-24T00:34:51;7.33;;;6.63;;
9536;SDS011;4807;48.024;11.726;2023-08-24T00:38:00;8.27;;;7.47;;
9536;SDS011;4807;48.024;11.726;2023-08-24T00:41:08;7.93;;;7.33;;
9536;SDS011;4807;48.024;11.726;2023-08-24T00:44:17;7.60;;;7.00;;
9536;SDS011;4807;48.024;11.726;2023-08-24T00:47:25;7.50;;;6.80;;
9536;SDS011;4807;48.024;11.726;2023-08-24T00:50:35;8.20;;;7.40;;
9536;SDS011;4807;48.024;11.726;2023-08-24T00:53:44;8.53;;;7.83;;
9536;SDS011;4807;48.024;11.726;2023-08-24T00:56:53;6.83;;;6.23;;
9536;SDS011;4807;48.024;11.726;2023-08-24T01:00:03;8.63;;;7.20;;
9536;SDS011;4807;48.024;11.726;2023-08-24T01:03:16;8.83;;;8.03;;
9536;SDS011;4807;48.024;11.726;2023-08-24T01:06:26;8.13;;;7.03;;
9536;SDS011;4807;48.024;11.726;2023-08-24T01:09:34;8.70;;;7.90;;
9536;SDS011;4807;48.024;11.726;2023-08-24T01:12:47;8.07;;;7.27;;
9536;SDS011;4807;48.024;11.726;2023-08-24T01:16:08;9.10;;;7.60;;
9536;SDS011;4807;48.024;11.726;2023-08-24T01:19:40;8.87;;;7.97;;
9536;SDS011;4807;48.024;11.726;2023-08-24T01:22:54;8.27;;;7.60;;
9536;SDS011;4807;48.024;11.726;2023-08-24T01:26:13;7.53;;;6.93;;
9536;SDS011;4807;48.024;11.726;2023-08-24T01:29:25;7.93;;;7.23;;
9536;SDS011;4807;48.024;11.726;2023-08-24T01:32:35;9.37;;;7.27;;
9536;SDS011;4807;48.024;11.726;2023-08-24T01:35:45;8.50;;;7.80;;
9536;SDS011;4807;48.024;11.726;2023-08-24T01:38:54;8.40;;;7.60;;
9536;SDS011;4807;48.024;11.726;2023-08-24T01:42:15;8.63;;;7.80;;
9536;SDS011;4807;48.024;11.726;2023-08-24T01:45:29;7.57;;;6.87;;
9536;SDS011;4807;48.024;11.726;2023-08-24T01:48:40;7.40;;;6.70;;
9536;SDS011;4807;48.024;11.726;2023-08-24T01:51:50;7.83;;;7.13;;
9536;SDS011;4807;48.024;11.726;2023-08-24T01:55:02;7.93;;;7.23;;
9536;SDS011;4807;48.024;11.726;2023-08-24T01:58:12;7.27;;;6.67;;
9536;SDS011;4807;48.024;11.726;2023-08-24T02:01:20;7.90;;;7.17;;
9536;SDS011;4807;48.024;11.726;2023-08-24T02:04:29;7.27;;;6.57;;
9536;SDS011;4807;48.024;11.726;2023-08-24T02:07:38;7.93;;;7.23;;
9536;SDS011;4807;48.024;11.726;2023-08-24T02:10:47;10.60;;;8.70;;
9536;SDS011;4807;48.024;11.726;2023-08-24T02:14:00;14.23;;;11.60;;
9536;SDS011;4807;48.024;11.726;2023-08-24T02:17:08;14.80;;;12.13;;
9536;SDS011;4807;48.024;11.726;2023-08-24T02:20:17;11.70;;;9.50;;
9536;SDS011;4807;48.024;11.726;2023-08-24T02:23:25;10.10;;;9.00;;
9536;SDS011;4807;48.024;11.726;2023-08-24T02:26:33;8.87;;;8.10;;
9536;SDS011;4807;48.024;11.726;2023-08-24T02:29:43;8.93;;;8.13;;
9536;SDS011;4807;48.024;11.726;2023-08-24T02:32:54;8.00;;;7.33;;
9536;SDS011;4807;48.024;11.726;2023-08-24T02:36:03;8.60;;;7.70;;
9536;SDS011;4807;48.024;11.726;2023-08-24T02:39:11;8.83;;;7.93;;
9536;SDS011;4807;48.024;11.726;2023-08-24T02:42:20;9.10;;;8.20;;
9536;SDS011;4807;48.024;11.726;2023-08-24T02:45:30;11.13;;;8.57;;
9536;SDS011;4807;48.024;11.726;2023-08-24T02:48:38;8.67;;;7.77;;
9536;SDS011;4807;48.024;11.726;2023-08-24T02:51:46;8.40;;;7.57;;
9536;SDS011;4807;48.024;11.726;2023-08-24T02:54:55;8.90;;;7.47;;
9536;SDS011;4807;48.024;11.726;2023-08-24T02:58:03;10.10;;;8.50;;
9536;SDS011;4807;48.024;11.726;2023-08-24T03:01:13;8.87;;;7.53;;
9536;SDS011;4807;48.024;11.726;2023-08-24T03:04:23;8.53;;;7.73;;
9536;SDS011;4807;48.024;11.726;2023-08-24T03:07:32;8.13;;;7.43;;
9536;SDS011;4807;48.024;11.726;2023-08-24T03:10:40;8.57;;;7.87;;
9536;SDS011;4807;48.024;11.726;2023-08-24T03:13:49;8.87;;;8.00;;
9536;SDS011;4807;48.024;11.726;2023-08-24T03:17:00;8.53;;;7.73;;
9536;SDS011;4807;48.024;11.726;2023-08-24T03:20:10;8.20;;;7.60;;
9536;SDS011;4807;48.024;11.726;2023-08-24T03:23:20;8.30;;;7.50;;
9536;SDS011;4807;48.024;11.726;2023-08-24T03:26:28;8.37;;;7.67;;
9536;SDS011;4807;48.024;11.726;2023-08-24T03:29:36;9.23;;;8.33;;
9536;SDS011;4807;48.024;11.726;2023-08-24T03:32:46;8.70;;;7.90;;
9536;SDS011;4807;48.024;11.726;2023-08-24T03:35:57;8.67;;;7.73;;
9536;SDS011;4807;48.024;11.726;2023-08-24T03:39:05;8.80;;;8.00;;
9536;SDS011;4807;48.024;11.726;2023-08-24T03:42:14;9.07;;;8.17;;
9536;SDS011;4807;48.024;11.726;2023-08-24T03:45:22;11.63;;;8.80;;
9536;SDS011;4807;48.024;11.726;2023-08-24T03:48:32;8.47;;;7.77;;
9536;SDS011;4807;48.024;11.726;2023-08-24T03:51:40;8.13;;;7.43;;
9536;SDS011;4807;48.024;11.726;2023-08-24T03:54:49;8.97;;;8.20;;
9536;SDS011;4807;48.024;11.726;2023-08-24T03:57:57;8.50;;;7.80;;
9536;SDS011;4807;48.024;11.726;2023-08-24T04:01:09;8.30;;;7.60;;
9536;SDS011;4807;48.024;11.726;2023-08-24T04:04:20;9.33;;;8.43;;
9536;SDS011;4807;48.024;11.726;2023-08-24T04:07:28;8.60;;;7.90;;
9536;SDS011;4807;48.024;11.726;2023-08-24T04:10:37;8.83;;;7.93;;
9536;SDS011;4807;48.024;11.726;2023-08-24T04:13:46;8.77;;;8.07;;
9536;SDS011;4807;48.024;11.726;2023-08-24T04:16:54;8.40;;;7.70;;
9536;SDS011;4807;48.024;11.726;2023-08-24T04:20:05;9.27;;;8.30;;
9536;SDS011;4807;48.024;11.726;2023-08-24T04:23:15;8.33;;;7.53;;
9536;SDS011;4807;48.024;11.726;2023-08-24T04:26:24;8.33;;;7.57;;
9536;SDS011;4807;48.024;11.726;2023-08-24T04:29:32;8.80;;;8.00;;
9536;SDS011;4807;48.024;11.726;2023-08-24T04:32:40;8.70;;;8.00;;
9536;SDS011;4807;48.024;11.726;2023-08-24T04:35:50;8.93;;;8.13;;
9536;SDS011;4807;48.024;11.726;2023-08-24T04:38:58;10.23;;;8.30;;
9536;SDS011;4807;48.024;11.726;2023-08-24T04:42:07;8.97;;;8.13;;
9536;SDS011;4807;48.024;11.726;2023-08-24T04:45:15;9.77;;;8.87;;
9536;SDS011;4807;48.024;11.726;2023-08-24T04:48:25;9.07;;;8.23;;
9536;SDS011;4807;48.024;11.726;2023-08-24T04:51:35;8.73;;;7.93;;
9536;SDS011;4807;48.024;11.726;2023-08-24T04:54:43;9.33;;;8.27;;
9536;SDS011;4807;48.024;11.726;2023-08-24T04:57:52;9.13;;;8.33;;
9536;SDS011;4807;48.024;11.726;2023-08-24T05:01:00;8.77;;;7.93;;
9536;SDS011;4807;48.024;11.726;2023-08-24T05:04:09;9.57;;;8.40;;
9536;SDS011;4807;48.024;11.726;2023-08-24T05:07:19;10.53;;;8.23;;
9536;SDS011;4807;48.024;11.726;2023-08-24T05:10:29;10.00;;;9.00;;
9536;SDS011;4807;48.024;11.726;2023-08-24T05:13:39;8.77;;;7.97;;
9536;SDS011;4807;48.024;11.726;2023-08-24T05:16:48;9.43;;;8.27;;
9536;SDS011;4807;48.024;11.726;2023-08-24T05:19:56;8.63;;;7.80;;
9536;SDS011;4807;48.024;11.726;2023-08-24T05:23:06;8.13;;;7.40;;
9536;SDS011;4807;48.024;11.726;2023-08-24T05:26:14;8.10;;;7.30;;
9536;SDS011;4807;48.024;11.726;2023-08-24T05:29:28;7.97;;;7.27;;
9536;SDS011;4807;48.024;11.726;2023-08-24T05:32:37;9.00;;;8.20;;
9536;SDS011;4807;48.024;11.726;2023-08-24T05:35:46;10.67;;;8.40;;
9536;SDS011;4807;48.024;11.726;2023-08-24T05:38:55;9.37;;;8.47;;
9536;SDS011;4807;48.024;11.726;2023-08-24T05:42:12;9.23;;;8.33;;
9536;SDS011;4807;48.024;11.726;2023-08-24T05:45:20;10.43;;;8.43;;
9536;SDS011;4807;48.024;11.726;2023-08-24T05:48:32;9.77;;;8.87;;
9536;SDS011;4807;48.024;11.726;2023-08-24T05:51:40;8.90;;;8.03;;
9536;SDS011;4807;48.024;11.726;2023-08-24T05:54:50;12.40;;;8.27;;
9536;SDS011;4807;48.024;11.726;2023-08-24T05:57:58;9.77;;;7.77;;
9536;SDS011;4807;48.024;11.726;2023-08-24T06:01:06;10.50;;;8.80;;
9536;SDS011;4807;48.024;11.726;2023-08-24T06:04:15;9.80;;;7.87;;
9536;SDS011;4807;48.024;11.726;2023-08-24T06:07:23;10.73;;;8.80;;
9536;SDS011;4807;48.024;11.726;2023-08-24T06:10:33;8.23;;;7.43;;
9536;SDS011;4807;48.024;11.726;2023-08-24T06:13:41;9.00;;;8.03;;
9536;SDS011;4807;48.024;11.726;2023-08-24T06:16:51;7.53;;;6.90;;
9536;SDS011;4807;48.024;11.726;2023-08-24T06:20:00;9.03;;;7.67;;
9536;SDS011;4807;48.024;11.726;2023-08-24T06:23:10;8.63;;;7.60;;
9536;SDS011;4807;48.024;11.726;2023-08-24T06:26:20;7.80;;;6.73;;
9536;SDS011;4807;48.024;11.726;2023-08-24T06:29:29;6.63;;;6.03;;
9536;SDS011;4807;48.024;11.726;2023-08-24T06:32:37;7.50;;;6.47;;
9536;SDS011;4807;48.024;11.726;2023-08-24T06:35:46;6.80;;;6.20;;
9536;SDS011;4807;48.024;11.726;2023-08-24T06:38:54;9.33;;;5.93;;
9536;SDS011;4807;48.024;11.726;2023-08-24T06:42:06;6.53;;;6.03;;
9536;SDS011;4807;48.024;11.726;2023-08-24T06:45:15;7.57;;;5.73;;
9536;SDS011;4807;48.024;11.726;2023-08-24T06:48:25;5.50;;;5.10;;
9536;SDS011;4807;48.024;11.726;2023-08-24T06:51:33;6.97;;;6.03;;
9536;SDS011;4807;48.024;11.726;2023-08-24T06:54:42;7.30;;;5.77;;
9536;SDS011;4807;48.024;11.726;2023-08-24T06:57:51;7.50;;;6.00;;
9536;SDS011;4807;48.024;11.726;2023-08-24T07:01:00;6.77;;;5.57;;
9536;SDS011;4807;48.024;11.726;2023-08-24T07:04:12;6.10;;;5.60;;
9536;SDS011;4807;48.024;11.726;2023-08-24T07:07:21;7.47;;;5.23;;
9536;SDS011;4807;48.024;11.726;2023-08-24T07:10:30;5.83;;;5.07;;
9536;SDS011;4807;48.024;11.726;2023-08-24T07:13:40;7.73;;;5.70;;
9536;SDS011;4807;48.024;11.726;2023-08-24T07:16:49;9.57;;;5.47;;
9536;SDS011;4807;48.024;11.726;2023-08-24T07:19:57;6.60;;;5.60;;
9536;SDS011;4807;48.024;11.726;2023-08-24T07:23:07;7.10;;;5.90;;
9536;SDS011;4807;48.024;11.726;2023-08-24T07:26:15;6.47;;;5.70;;
9536;SDS011;4807;48.024;11.726;2023-08-24T07:29:25;5.30;;;4.90;;
9536;SDS011;4807;48.024;11.726;2023-08-24T07:32:33;5.30;;;4.90;;
9536;SDS011;4807;48.024;11.726;2023-08-24T07:35:41;9.43;;;5.43;;
9536;SDS011;4807;48.024;11.726;2023-08-24T07:38:50;6.43;;;5.37;;
9536;SDS011;4807;48.024;11.726;2023-08-24T07:41:58;5.73;;;4.80;;
9536;SDS011;4807;48.024;11.726;2023-08-24T07:45:08;5.10;;;4.60;;
9536;SDS011;4807;48.024;11.726;2023-08-24T07:48:18;5.67;;;5.07;;
9536;SDS011;4807;48.024;11.726;2023-08-24T07:51:26;5.23;;;4.73;;
9536;SDS011;4807;48.024;11.726;2023-08-24T07:54:35;5.03;;;4.57;;
9536;SDS011;4807;48.024;11.726;2023-08-24T07:57:43;6.03;;;4.80;;
9536;SDS011;4807;48.024;11.726;2023-08-24T08:00:52;9.40;;;5.13;;
9536;SDS011;4807;48.024;11.726;2023-08-24T08:04:01;5.83;;;5.20;;
9536;SDS011;4807;48.024;11.726;2023-08-24T08:07:09;9.57;;;5.13;;
9536;SDS011;4807;48.024;11.726;2023-08-24T08:10:18;6.40;;;5.80;;
9536;SDS011;4807;48.024;11.726;2023-08-24T08:13:28;5.30;;;4.80;;
9536;SDS011;4807;48.024;11.726;2023-08-24T08:16:39;6.70;;;5.50;;
9536;SDS011;4807;48.024;11.726;2023-08-24T08:19:47;6.50;;;4.90;;
9536;SDS011;4807;48.024;11.726;2023-08-24T08:22:56;5.83;;;5.23;;
9536;SDS011;4807;48.024;11.726;2023-08-24T08:26:04;6.90;;;5.40;;
9536;SDS011;4807;48.024;11.726;2023-08-24T08:29:12;8.27;;;5.50;;
9536;SDS011;4807;48.024;11.726;2023-08-24T08:32:22;6.10;;;5.50;;
9536;SDS011;4807;48.024;11.726;2023-08-24T08:35:33;8.43;;;4.80;;
9536;SDS011;4807;48.024;11.726;2023-08-24T08:38:41;7.40;;;5.53;;
9536;SDS011;4807;48.024;11.726;2023-08-24T08:41:50;6.40;;;5.40;;
9536;SDS011;4807;48.024;11.726;2023-08-24T08:44:58;6.60;;;5.20;;
9536;SDS011;4807;48.024;11.726;2023-08-24T08:48:11;6.27;;;5.33;;
9536;SDS011;4807;48.024;11.726;2023-08-24T08:51:19;7.13;;;5.30;;
9536;SDS011;4807;48.024;11.726;2023-08-24T08:54:29;7.07;;;5.93;;
9536;SDS011;4807;48.024;11.726;2023-08-24T08:57:39;8.30;;;5.13;;
9536;SDS011;4807;48.024;11.726;2023-08-24T09:00:49;5.70;;;5.20;;
9536;SDS011;4807;48.024;11.726;2023-08-24T09:04:00;5.87;;;5.30;;
9536;SDS011;4807;48.024;11.726;2023-08-24T09:07:09;7.17;;;5.80;;
9536;SDS011;4807;48.024;11.726;2023-08-24T09:10:19;6.53;;;5.67;;
9536;SDS011;4807;48.024;11.726;2023-08-24T09:13:27;5.43;;;5.03;;
9536;SDS011;4807;48.024;11.726;2023-08-24T09:16:36;7.80;;;5.23;;
9536;SDS011;4807;48.024;11.726;2023-08-24T09:19:46;7.00;;;5.30;;
9536;SDS011;4807;48.024;11.726;2023-08-24T09:22:58;5.97;;;5.37;;
9536;SDS011;4807;48.024;11.726;2023-08-24T09:26:06;8.20;;;5.17;;
9536;SDS011;4807;48.024;11.726;2023-08-24T09:29:15;6.00;;;4.97;;
9536;SDS011;4807;48.024;11.726;2023-08-24T09:32:24;7.60;;;5.67;;
9536;SDS011;4807;48.024;11.726;2023-08-24T09:35:37;10.67;;;5.73;;
9536;SDS011;4807;48.024;11.726;2023-08-24T09:38:46;5.83;;;5.33;;
9536;SDS011;4807;48.024;11.726;2023-08-24T09:41:57;7.80;;;5.17;;
9536;SDS011;4807;48.024;11.726;2023-08-24T09:45:11;6.87;;;5.17;;
9536;SDS011;4807;48.024;11.726;2023-08-24T09:48:21;6.77;;;5.50;;
9536;SDS011;4807;48.024;11.726;2023-08-24T09:51:37;7.00;;;5.50;;
9536;SDS011;4807;48.024;11.726;2023-08-24T09:54:47;6.50;;;5.77;;
9536;SDS011;4807;48.024;11.726;2023-08-24T09:57:59;6.87;;;5.33;;
9536;SDS011;4807;48.024;11.726;2023-08-24T10:01:10;11.37;;;5.20;;
9536;SDS011;4807;48.024;11.726;2023-08-24T10:04:21;7.80;;;5.03;;
9536;SDS011;4807;48.024;11.726;2023-08-24T10:07:32;7.07;;;5.43;;
9536;SDS011;4807;48.024;11.726;2023-08-24T10:10:47;5.77;;;5.27;;
9536;SDS011;4807;48.024;11.726;2023-08-24T10:14:00;7.30;;;5.40;;
9536;SDS011;4807;48.024;11.726;2023-08-24T10:17:18;8.50;;;5.03;;
9536;SDS011;4807;48.024;11.726;2023-08-24T10:20:27;5.13;;;4.73;;
9536;SDS011;4807;48.024;11.726;2023-08-24T10:23:38;7.87;;;5.30;;
9536;SDS011;4807;48.024;11.726;2023-08-24T10:26:47;9.27;;;5.77;;
9536;SDS011;4807;48.024;11.726;2023-08-24T10:29:58;6.53;;;5.10;;
9536;SDS011;4807;48.024;11.726;2023-08-24T10:33:07;7.40;;;4.77;;
9536;SDS011;4807;48.024;11.726;2023-08-24T10:36:16;6.00;;;4.93;;
9536;SDS011;4807;48.024;11.726;2023-08-24T10:39:29;7.53;;;4.97;;
9536;SDS011;4807;48.024;11.726;2023-08-24T10:42:43;6.00;;;4.63;;
9536;SDS011;4807;48.024;11.726;2023-08-24T10:45:56;6.77;;;4.97;;
9536;SDS011;4807;48.024;11.726;2023-08-24T10:49:07;5.23;;;4.77;;
9536;SDS011;4807;48.024;11.726;2023-08-24T10:52:16;7.77;;;5.07;;
9536;SDS011;4807;48.024;11.726;2023-08-24T10:55:30;5.40;;;4.50;;
9536;SDS011;4807;48.024;11.726;2023-08-24T10:58:42;5.93;;;4.87;;
9536;SDS011;4807;48.024;11.726;2023-08-24T11:01:55;8.30;;;4.57;;
9536;SDS011;4807;48.024;11.726;2023-08-24T11:05:06;6.50;;;4.60;;
9536;SDS011;4807;48.024;11.726;2023-08-24T11:08:23;6.10;;;4.07;;
9536;SDS011;4807;48.024;11.726;2023-08-24T11:11:57;7.93;;;4.57;;
9536;SDS011;4807;48.024;11.726;2023-08-24T11:15:07;5.73;;;4.73;;
9536;SDS011;4807;48.024;11.726;2023-08-24T11:18:21;6.03;;;4.20;;
9536;SDS011;4807;48.024;11.726;2023-08-24T11:21:32;6.10;;;4.40;;
9536;SDS011;4807;48.024;11.726;2023-08-24T11:24:41;5.83;;;4.00;;
9536;SDS011;4807;48.024;11.726;2023-08-24T11:27:51;5.97;;;4.20;;
9536;SDS011;4807;48.024;11.726;2023-08-24T11:30:59;5.30;;;4.90;;
9536;SDS011;4807;48.024;11.726;2023-08-24T11:34:07;5.07;;;4.33;;
9536;SDS011;4807;48.024;11.726;2023-08-24T11:37:18;4.80;;;4.40;;
9536;SDS011;4807;48.024;11.726;2023-08-24T11:40:27;4.90;;;4.50;;
9536;SDS011;4807;48.024;11.726;2023-08-24T11:43:37;6.93;;;4.77;;
9536;SDS011;4807;48.024;11.726;2023-08-24T11:46:45;7.67;;;3.87;;
9536;SDS011;4807;48.024;11.726;2023-08-24T11:49:53;7.67;;;4.50;;
9536;SDS011;4807;48.024;11.726;2023-08-24T11:53:06;7.00;;;4.40;;
9536;SDS011;4807;48.024;11.726;2023-08-24T11:56:14;5.93;;;4.97;;
9536;SDS011;4807;48.024;11.726;2023-08-24T11:59:29;5.13;;;4.60;;
9536;SDS011;4807;48.024;11.726;2023-08-24T12:02:38;4.60;;;4.20;;
9536;SDS011;4807;48.024;11.726;2023-08-24T12:05:48;5.30;;;4.90;;
9536;SDS011;4807;48.024;11.726;2023-08-24T12:08:57;5.30;;;4.30;;
9536;SDS011;4807;48.024;11.726;2023-08-24T12:12:05;5.43;;;3.93;;
9536;SDS011;4807;48.024;11.726;2023-08-24T12:15:21;4.37;;;3.73;;
9536;SDS011;4807;48.024;11.726;2023-08-24T12:18:29;7.30;;;3.63;;
9536;SDS011;4807;48.024;11.726;2023-08-24T12:21:42;3.60;;;3.30;;
9536;SDS011;4807;48.024;11.726;2023-08-24T12:24:52;5.80;;;3.93;;
9536;SDS011;4807;48.024;11.726;2023-08-24T12:28:10;5.70;;;3.50;;
9536;SDS011;4807;48.024;11.726;2023-08-24T12:31:25;4.13;;;3.27;;
9536;SDS011;4807;48.024;11.726;2023-08-24T12:34:34;5.03;;;3.80;;
9536;SDS011;4807;48.024;11.726;2023-08-24T12:37:43;5.30;;;3.50;;
9536;SDS011;4807;48.024;11.726;2023-08-24T12:40:52;3.50;;;3.20;;
9536;SDS011;4807;48.024;11.726;2023-08-24T12:44:01;4.60;;;3.47;;
9536;SDS011;4807;48.024;11.726;2023-08-24T12:47:13;4.77;;;2.70;;
9536;SDS011;4807;48.024;11.726;2023-08-24T12:50:21;5.17;;;3.23;;
9536;SDS011;4807;48.024;11.726;2023-08-24T12:53:30;5.90;;;3.03;;
9536;SDS011;4807;48.024;11.726;2023-08-24T12:56:38;10.67;;;2.80;;
9536;SDS011;4807;48.024;11.726;2023-08-24T12:59:47;8.77;;;3.17;;
9536;SDS011;4807;48.024;11.726;2023-08-24T13:03:00;3.43;;;2.70;;
9536;SDS011;4807;48.024;11.726;2023-08-24T13:06:09;7.60;;;3.60;;
9536;SDS011;4807;48.024;11.726;2023-08-24T13:09:29;6.03;;;3.13;;
9536;SDS011;4807;48.024;11.726;2023-08-24T13:12:38;9.17;;;3.80;;
9536;SDS011;4807;48.024;11.726;2023-08-24T13:15:47;6.40;;;3.47;;
9536;SDS011;4807;48.024;11.726;2023-08-24T13:19:01;8.80;;;3.17;;
9536;SDS011;4807;48.024;11.726;2023-08-24T13:22:11;6.63;;;3.20;;
9536;SDS011;4807;48.024;11.726;2023-08-24T13:25:19;8.03;;;3.67;;
9536;SDS011;4807;48.024;11.726;2023-08-24T13:28:27;6.87;;;3.10;;
9536;SDS011;4807;48.024;11.726;2023-08-24T13:31:36;4.20;;;3.23;;
9536;SDS011;4807;48.024;11.726;2023-08-24T13:34:45;6.43;;;3.33;;
9536;SDS011;4807;48.024;11.726;2023-08-24T13:37:54;6.63;;;4.00;;
9536;SDS011;4807;48.024;11.726;2023-08-24T13:41:02;8.00;;;3.50;;
9536;SDS011;4807;48.024;11.726;2023-08-24T13:44:11;7.77;;;3.40;;
9536;SDS011;4807;48.024;11.726;2023-08-24T13:47:19;7.57;;;3.67;;
9536;SDS011;4807;48.024;11.726;2023-08-24T13:50:30;6.43;;;3.10;;
9536;SDS011;4807;48.024;11.726;2023-08-24T13:53:38;10.90;;;3.67;;
9536;SDS011;4807;48.024;11.726;2023-08-24T13:56:47;6.33;;;3.50;;
9536;SDS011;4807;48.024;11.726;2023-08-24T13:59:56;7.03;;;4.00;;
9536;SDS011;4807;48.024;11.726;2023-08-24T14:03:06;7.03;;;3.80;;
9536;SDS011;4807;48.024;11.726;2023-08-24T14:06:15;5.47;;;3.50;;
9536;SDS011;4807;48.024;11.726;2023-08-24T14:09:24;6.77;;;3.43;;
9536;SDS011;4807;48.024;11.726;2023-08-24T14:12:32;9.77;;;3.57;;
9536;SDS011;4807;48.024;11.726;2023-08-24T14:15:41;6.90;;;3.60;;
9536;SDS011;4807;48.024;11.726;2023-08-24T14:18:49;3.97;;;3.53;;
9536;SDS011;4807;48.024;11.726;2023-08-24T14:22:00;5.07;;;3.83;;
9536;SDS011;4807;48.024;11.726;2023-08-24T14:25:09;9.40;;;3.90;;
9536;SDS011;4807;48.024;11.726;2023-08-24T14:28:18;4.93;;;3.70;;
9536;SDS011;4807;48.024;11.726;2023-08-24T14:31:29;9.70;;;3.90;;
9536;SDS011;4807;48.024;11.726;2023-08-24T14:34:38;7.00;;;3.17;;
9536;SDS011;4807;48.024;11.726;2023-08-24T14:37:48;6.77;;;3.27;;
9536;SDS011;4807;48.024;11.726;2023-08-24T14:40:56;6.73;;;3.67;;
9536;SDS011;4807;48.024;11.726;2023-08-24T14:44:07;7.23;;;3.23;;
9536;SDS011;4807;48.024;11.726;2023-08-24T14:47:15;7.43;;;3.40;;
9536;SDS011;4807;48.024;11.726;2023-08-24T14:50:27;7.03;;;4.43;;
9536;SDS011;4807;48.024;11.726;2023-08-24T14:53:36;6.47;;;3.67;;
9536;SDS011;4807;48.024;11.726;2023-08-24T14:56:45;6.10;;;3.40;;
9536;SDS011;4807;48.024;11.726;2023-08-24T14:59:53;6.53;;;4.00;;
9536;SDS011;4807;48.024;11.726;2023-08-24T15:03:02;5.23;;;3.70;;
9536;SDS011;4807;48.024;11.726;2023-08-24T15:06:12;11.10;;;3.70;;
9536;SDS011;4807;48.024;11.726;2023-08-24T15:09:21;5.63;;;3.53;;
9536;SDS011;4807;48.024;11.726;2023-08-24T15:12:30;6.87;;;4.00;;
9536;SDS011;4807;48.024;11.726;2023-08-24T15:15:38;8.37;;;4.23;;
9536;SDS011;4807;48.024;11.726;2023-08-24T15:18:46;8.73;;;4.27;;
9536;SDS011;4807;48.024;11.726;2023-08-24T15:21:55;6.27;;;4.30;;
9536;SDS011;4807;48.024;11.726;2023-08-24T15:25:06;8.47;;;4.13;;
9536;SDS011;4807;48.024;11.726;2023-08-24T15:28:15;5.57;;;3.77;;
9536;SDS011;4807;48.024;11.726;2023-08-24T15:31:23;7.33;;;3.50;;
9536;SDS011;4807;48.024;11.726;2023-08-24T15:34:31;9.20;;;4.17;;
9536;SDS011;4807;48.024;11.726;2023-08-24T15:37:41;7.37;;;4.50;;
9536;SDS011;4807;48.024;11.726;2023-08-24T15:40:52;8.60;;;4.00;;
9536;SDS011;4807;48.024;11.726;2023-08-24T15:44:01;8.13;;;3.77;;
9536;SDS011;4807;48.024;11.726;2023-08-24T15:47:09;7.10;;;3.40;;
9536;SDS011;4807;48.024;11.726;2023-08-24T15:50:18;10.60;;;4.00;;
9536;SDS011;4807;48.024;11.726;2023-08-24T15:53:26;9.10;;;3.20;;
9536;SDS011;4807;48.024;11.726;2023-08-24T15:56:36;7.20;;;3.73;;
9536;SDS011;4807;48.024;11.726;2023-08-24T15:59:47;8.60;;;3.93;;
9536;SDS011;4807;48.024;11.726;2023-08-24T16:02:56;6.77;;;3.90;;
9536;SDS011;4807;48.024;11.726;2023-08-24T16:06:05;4.83;;;3.40;;
9536;SDS011;4807;48.024;11.726;2023-08-24T16:09:13;11.73;;;4.30;;
9536;SDS011;4807;48.024;11.726;2023-08-24T16:12:23;9.57;;;4.30;;
9536;SDS011;4807;48.024;11.726;2023-08-24T16:15:31;5.53;;;3.83;;
9536;SDS011;4807;48.024;11.726;2023-08-24T16:18:40;7.60;;;4.03;;
9536;SDS011;4807;48.024;11.726;2023-08-24T16:21:48;5.87;;;3.23;;
9536;SDS011;4807;48.024;11.726;2023-08-24T16:24:56;7.10;;;3.90;;
9536;SDS011;4807;48.024;11.726;2023-08-24T16:28:06;6.03;;;3.93;;
9536;SDS011;4807;48.024;11.726;2023-08-24T16:31:14;7.23;;;3.80;;
9536;SDS011;4807;48.024;11.726;2023-08-24T16:34:23;7.50;;;3.80;;
9536;SDS011;4807;48.024;11.726;2023-08-24T16:37:31;7.33;;;4.37;;
9536;SDS011;4807;48.024;11.726;2023-08-24T16:40:39;6.47;;;3.77;;
9536;SDS011;4807;48.024;11.726;2023-08-24T16:43:49;6.23;;;4.17;;
9536;SDS011;4807;48.024;11.726;2023-08-24T16:46:58;9.57;;;4.07;;
9536;SDS011;4807;48.024;11.726;2023-08-24T16:50:06;6.70;;;4.30;;
9536;SDS011;4807;48.024;11.726;2023-08-24T16:53:16;7.10;;;4.33;;
9536;SDS011;4807;48.024;11.726;2023-08-24T16:56:24;11.73;;;4.80;;
9536;SDS011;4807;48.024;11.726;2023-08-24T16:59:33;6.60;;;4.03;;
9536;SDS011;4807;48.024;11.726;2023-08-24T17:02:42;7.23;;;4.47;;
9536;SDS011;4807;48.024;11.726;2023-08-24T17:05:51;8.77;;;4.20;;
9536;SDS011;4807;48.024;11.726;2023-08-24T17:08:59;8.30;;;4.00;;
9536;SDS011;4807;48.024;11.726;2023-08-24T17:12:07;6.67;;;4.30;;
9536;SDS011;4807;48.024;11.726;2023-08-24T17:15:17;5.47;;;4.27;;
9536;SDS011;4807;48.024;11.726;2023-08-24T17:18:25;6.33;;;4.30;;
9536;SDS011;4807;48.024;11.726;2023-08-24T17:21:34;4.77;;;3.70;;
9536;SDS011;4807;48.024;11.726;2023-08-24T17:24:42;7.90;;;4.43;;
9536;SDS011;4807;48.024;11.726;2023-08-24T17:27:51;5.67;;;3.67;;
9536;SDS011;4807;48.024;11.726;2023-08-24T17:31:03;5.73;;;3.90;;
9536;SDS011;4807;48.024;11.726;2023-08-24T17:34:12;5.10;;;3.93;;
9536;SDS011;4807;48.024;11.726;2023-08-24T17:37:20;6.17;;;4.10;;
9536;SDS011;4807;48.024;11.726;2023-08-24T17:40:28;5.20;;;4.07;;
9536;SDS011;4807;48.024;11.726;2023-08-24T17:43:37;6.03;;;4.43;;
9536;SDS011;4807;48.024;11.726;2023-08-24T17:46:48;7.70;;;5.17;;
9536;SDS011;4807;48.024;11.726;2023-08-24T17:49:56;10.30;;;5.20;;
9536;SDS011;4807;48.024;11.726;2023-08-24T17:53:05;6.57;;;5.03;;
9536;SDS011;4807;48.024;11.726;2023-08-24T17:56:13;8.47;;;4.87;;
9536;SDS011;4807;48.024;11.726;2023-08-24T17:59:21;10.97;;;4.63;;
9536;SDS011;4807;48.024;11.726;2023-08-24T18:02:31;7.23;;;4.70;;
9536;SDS011;4807;48.024;11.726;2023-08-24T18:05:40;7.90;;;5.63;;
9536;SDS011;4807;48.024;11.726;2023-08-24T18:08:51;5.60;;;4.97;;
9536;SDS011;4807;48.024;11.726;2023-08-24T18:12:00;9.67;;;5.30;;
9536;SDS011;4807;48.024;11.726;2023-08-24T18:15:09;8.93;;;4.97;;
9536;SDS011;4807;48.024;11.726;2023-08-24T18:18:27;6.93;;;4.43;;
9536;SDS011;4807;48.024;11.726;2023-08-24T18:21:38;7.93;;;4.13;;
9536;SDS011;4807;48.024;11.726;2023-08-24T18:24:46;5.57;;;4.30;;
9536;SDS011;4807;48.024;11.726;2023-08-24T18:27:54;4.63;;;3.83;;
9536;SDS011;4807;48.024;11.726;2023-08-24T18:31:03;6.57;;;4.63;;
9536;SDS011;4807;48.024;11.726;2023-08-24T18:34:13;7.30;;;4.60;;
9536;SDS011;4807;48.024;11.726;2023-08-24T18:37:21;6.23;;;4.20;;
9536;SDS011;4807;48.024;11.726;2023-08-24T18:40:30;8.47;;;4.87;;
9536;SDS011;4807;48.024;11.726;2023-08-24T18:43:38;9.53;;;4.60;;
9536;SDS011;4807;48.024;11.726;2023-08-24T18:46:46;5.90;;;4.60;;
9536;SDS011;4807;48.024;11.726;2023-08-24T18:49:58;10.60;;;4.77;;
9536;SDS011;4807;48.024;11.726;2023-08-24T18:53:06;4.80;;;4.30;;
9536;SDS011;4807;48.024;11.726;2023-08-24T18:56:14;8.50;;;4.80;;
9536;SDS011;4807;48.024;11.726;2023-08-24T18:59:23;7.17;;;5.00;;
9536;SDS011;4807;48.024;11.726;2023-08-24T19:02:32;5.57;;;4.87;;
9536;SDS011;4807;48.024;11.726;2023-08-24T19:05:41;7.97;;;4.93;;
9536;SDS011;4807;48.024;11.726;2023-08-24T19:08:51;6.93;;;4.93;;
9536;SDS011;4807;48.024;11.726;2023-08-24T19:11:59;9.07;;;5.53;;
9536;SDS011;4807;48.024;11.726;2023-08-24T19:15:08;5.37;;;4.87;;
9536;SDS011;4807;48.024;11.726;2023-08-24T19:18:16;8.00;;;5.47;;